Flight Track Log - Related Links

Times and Time Zones

All times are in EDT time to prevent confusion due to time zone crossing. See the N8077J flight status page for this flight to view local times or setup timezone preferences in your user account.

Time Position Orientation Groundspeed Altitude Reporting Facility
EDT Latitude Longitude Course Direction KTS MPH feet Rate Location/Type
Wed 01:45:10 PM 29.6142 -95.6569 347° North 24 28 700  Level Houston Center
Wed 01:45:40 PM 29.6025 -95.6656 213° Southwest 110 127 1,200 913 Climbing Houston Center
Wed 01:46:42 PM 29.6261 -95.6964 311° West 125 144 2,100 848 Climbing Houston Center
Wed 01:47:12 PM 29.6397 -95.7008 344° North 121 139 2,500 787 Climbing Houston Center
Wed 01:47:43 PM 29.6600 -95.6997 North 130 150 2,900 581 Climbing Houston Center
Wed 01:48:14 PM 29.6756 -95.6969 North 129 148 3,100 689 Climbing Houston Center
Wed 01:48:44 PM 29.6953 -95.6931 10° North 128 147 3,600 677 Climbing Houston Center
Wed 01:49:16 PM 29.7119 -95.6897 10° North 131 151 3,800 295 Climbing Houston Center
Wed 01:49:45 PM 29.7344 -95.6861 North 145 167 3,900 97 Climbing Houston Center
Wed 01:50:18 PM 29.7528 -95.6869 358° North 142 163 3,900 492 Level Houston Center
Wed 01:50:46 PM 29.7786 -95.6858 North 144 166 4,400 581 Climbing Houston Center
Wed 01:51:00 PM 29.8408 -95.7158 347° North  Level Estimated
Wed 01:51:20 PM 29.7931 -95.6847 North 146 168 4,500  Level Houston Center
Wed 01:51:47 PM 29.8167 -95.6908 347° North 134 154 5,000 1,065 Climbing Houston Center
Wed 01:52:22 PM 29.8347 -95.6972 343° North 131 151 5,600 885 Climbing Houston Center
Wed 01:52:48 PM 29.8472 -95.7017 343° North 118 136 5,900 677 Climbing Houston Center
Wed 01:53:24 PM 29.8644 -95.7094 339° North 117 135 6,300 689 Climbing Houston Center
Wed 01:53:49 PM 29.8778 -95.7175 332° Northwest 111 128 6,600 290 Climbing Houston Center
Wed 01:54:26 PM 29.8939 -95.7236 342° North 115 132 6,600  Level Houston Center
Wed 01:54:50 PM 29.9106 -95.7306 340° North 145 167 6,600  Level Houston Center
Wed 01:55:28 PM 29.9322 -95.7353 349° North 138 159 6,600  Level Houston Center
Wed 01:55:52 PM 29.9514 -95.7403 347° North 139 160 6,600  Level Houston Center
Wed 01:56:30 PM 29.9697 -95.7456 346° North 141 162 6,600  Level Houston Center
Wed 01:56:53 PM 29.9881 -95.7528 341° North 137 158 6,600  Level Houston Center
Wed 01:57:32 PM 30.0069 -95.7572 348° North 139 160 6,600  Level Houston Center
Wed 01:57:54 PM 30.0267 -95.7628 346° North 142 163 6,600  Level Houston Center
Wed 01:58:35 PM 30.0533 -95.7703 346° North 142 163 6,600  Level Houston Center
Wed 01:58:55 PM 30.0653 -95.7728 350° North 144 166 6,600  Level Houston Center
Wed 01:59:37 PM 30.0914 -95.7803 346° North 141 162 6,600  Level Houston Center
Wed 01:59:56 PM 30.1064 -95.7847 346° North 142 163 6,600  Level Houston Center
Wed 02:00:39 PM 30.1308 -95.7906 348° North 144 166 6,600  Level Houston Center
Wed 02:00:57 PM 30.1447 -95.7925 353° North 141 162 6,600  Level Houston Center
Wed 02:01:41 PM 30.1694 -95.7978 350° North 141 162 6,600  Level Houston Center
Wed 02:01:59 PM 30.1856 -95.8022 347° North 143 165 6,600 -97 Level Houston Center
Wed 02:02:43 PM 30.2083 -95.8094 345° North 144 166 6,500  Descending Houston Center
Wed 02:03:00 PM 30.2242 -95.8122 351° North 145 167 6,600  Climbing Houston Center
Wed 02:03:45 PM 30.2469 -95.8200 344° North 144 166 6,500  Descending Houston Center
Wed 02:04:01 PM 30.2650 -95.8244 348° North 143 165 6,600  Climbing Houston Center
Wed 02:04:47 PM 30.2942 -95.8328 346° North 144 166 6,500  Descending Houston Center
Wed 02:05:02 PM 30.3039 -95.8367 341° North 143 165 6,600  Climbing Houston Center
Wed 02:05:49 PM 30.3336 -95.8433 349° North 146 168 6,500  Descending Houston Center
Wed 02:06:04 PM 30.3447 -95.8467 345° North 145 167 6,600  Climbing Houston Center
Wed 02:06:51 PM 30.3728 -95.8528 349° North 144 166 6,500  Descending Houston Center
Wed 02:07:53 PM 30.4122 -95.8644 346° North 146 168 6,600 48 Climbing Houston Center
Wed 02:08:56 PM 30.4525 -95.8747 348° North 148 170 6,600  Level Houston Center
Wed 02:09:58 PM 30.4911 -95.8853 347° North 143 165 6,600  Level Houston Center
Wed 02:11:10 PM 30.5469 -95.9031 345° North 147 169 6,600  Level Houston Center
Wed 02:12:02 PM 30.5781 -95.9094 350° North 145 167 6,600  Level Houston Center
Wed 02:13:04 PM 30.6172 -95.9203 347° North 146 168 6,600  Level Houston Center
Wed 02:14:15 PM 30.6672 -95.9353 346° North 147 169 6,600  Level Houston Center
Wed 02:15:08 PM 30.6989 -95.9433 348° North 146 168 6,600  Level Houston Center
Wed 02:16:10 PM 30.7386 -95.9533 348° North 146 168 6,600  Level Houston Center
Wed 02:17:13 PM 30.7781 -95.9647 346° North 146 168 6,600  Level Houston Center
Wed 02:18:15 PM 30.8256 -95.9781 346° North 146 168 6,600  Level Houston Center
Wed 02:19:17 PM 30.8653 -95.9892 346° North 145 167 6,600  Level Houston Center
Wed 02:20:19 PM 30.9042 -96.0000 347° North 145 167 6,600  Level Houston Center
Wed 02:21:24 PM 30.9467 -96.0122 346° North 144 166 6,600  Level Houston Center
Wed 02:22:25 PM 30.9872 -96.0222 348° North 142 163 6,600  Level Houston Center
Wed 02:23:25 PM 31.0197 -96.0328 344° North 141 162 6,600  Level Houston Center
Wed 02:24:28 PM 31.0664 -96.0447 348° North 142 163 6,600  Level Houston Center
Wed 02:25:30 PM 31.1061 -96.0556 347° North 145 167 6,600  Level Houston Center
Wed 02:26:32 PM 31.1458 -96.0661 347° North 147 169 6,600  Level Houston Center
Wed 02:27:34 PM 31.1864 -96.0772 347° North 141 162 6,600  Level Houston Center
Wed 02:28:36 PM 31.2253 -96.0886 346° North 142 163 6,600  Level Houston Center
Wed 02:29:38 PM 31.2633 -96.0986 347° North 141 162 6,600  Level Houston Center
Wed 02:30:40 PM 31.3033 -96.1117 344° North 145 167 6,600  Level Houston Center
Wed 02:31:43 PM 31.3417 -96.1211 348° North 142 163 6,600  Level Houston Center
Wed 02:32:45 PM 31.3806 -96.1339 344° North 143 165 6,600  Level Houston Center
Wed 02:33:47 PM 31.4242 -96.1453 347° North 138 159 6,600  Level Houston Center
Wed 02:34:49 PM 31.4644 -96.1556 348° North 143 165 6,600  Level Houston Center
Wed 02:35:51 PM 31.5033 -96.1669 346° North 143 165 6,600  Level Houston Center
Wed 02:36:53 PM 31.5431 -96.1761 349° North 144 166 6,600 -48 Level Houston Center
Wed 02:37:55 PM 31.5811 -96.1769 359° North 140 161 6,500 -864 Descending Houston Center
Wed 02:38:58 PM 31.6286 -96.1836 353° North 164 189 4,800 -912 Descending Houston Center
Wed 02:40:00 PM 31.6736 -96.2083 335° Northwest 155 178 4,600 -95 Descending Houston Center
Wed 02:41:04 PM 31.7192 -96.2339 334° Northwest 149 171 4,600  Level Fort Center
Wed 02:42:04 PM 31.7506 -96.2383 353° North 135 155 4,600  Level Fort Center
Wed 02:43:04 PM 31.7883 -96.2525 342° North 140 161 4,600  Level Fort Center
Wed 02:44:04 PM 31.8303 -96.2592 352° North 145 167 4,600  Level Fort Center
Wed 02:45:04 PM 31.8719 -96.2708 347° North 150 173 4,600 -50 Level Fort Center
Wed 02:46:04 PM 31.9119 -96.2850 343° North 150 173 4,500 -100 Descending Fort Center
Wed 02:47:04 PM 31.9578 -96.2944 350° North 150 173 4,400 -50 Descending Fort Center
Wed 02:48:04 PM 31.9978 -96.3111 341° North 150 173 4,400  Level Fort Center
Wed 02:49:04 PM 32.0417 -96.3178 353° North 150 173 4,400 -150 Level Fort Center
Wed 02:50:04 PM 32.0814 -96.3344 340° North 150 173 4,100 -450 Descending Fort Center
Wed 02:51:04 PM 32.1275 -96.3486 345° North 155 178 3,500 -800 Descending Fort Center
Wed 02:52:04 PM 32.1756 -96.3653 344° North 160 184 2,500 -450 Descending Fort Center
Wed 02:53:04 PM 32.2153 -96.3722 352° North 160 184 2,600 50 Climbing Fort Center
Wed 02:54:04 PM 32.2531 -96.3817 348° North 150 173 2,600  Level Fort Center
Wed 02:55:04 PM 32.2969 -96.3983 342° North 145 167 2,600  Level Fort Center
Wed 02:56:04 PM 32.3325 -96.4103 344° North 145 167 2,600  Level Fort Center
Wed 02:57:04 PM 32.3786 -96.4219 348° North 152 175 2,600  Level Fort Center
Wed 02:58:04 PM 32.4100 -96.4292 349° North 147 169 2,600 950 Level Fort Center
Wed 02:59:04 PM 32.4558 -96.4433 345° North 147 169 4,500 950 Climbing Fort Center
Wed 03:00:04 PM 32.4978 -96.4553 346° North 147 169 4,500  Level Fort Center
Wed 03:01:04 PM 32.5397 -96.4669 347° North 147 169 4,500  Level Fort Center
Wed 03:02:05 PM 32.5731 -96.4767 346° North 147 169 4,500  Level Fort Center
Wed 03:04:04 PM 32.5731 -96.4767 148° Southeast 147 169 4,500  Level Fort Center
Wed 03:06:04 PM 32.5731 -96.4767 148° Southeast 147 169 4,500  Level Fort Center
Wed 03:09:00 PM 32.6462 -96.4921 350° North  Level FlightAware
Wed 03:16:00 PM 32.7333 -96.5167 344° North  Level FlightAware
Wed 03:17:00 PM 32.7470 -96.5304 344° North  Level Estimated
Wed 03:18:00 PM 32.7470 -96.5304 344° North  Level Estimated
Wed 03:19:00 PM 32.7470 -96.5304 344° North  Level Estimated

Login

Don't have an account? Register now (free) for customized features, flight alerts, and more!